sensor_id;sensor_type;location;lat;lon;timestamp;P1;durP1;ratioP1;P2;durP2;ratioP2
13404;SDS011;6773;51.192;7.024;2023-11-19T00:01:40;7.50;;;5.30;;
13404;SDS011;6773;51.192;7.024;2023-11-19T00:04:06;5.70;;;5.10;;
13404;SDS011;6773;51.192;7.024;2023-11-19T00:06:33;5.10;;;4.53;;
13404;SDS011;6773;51.192;7.024;2023-11-19T00:08:58;4.27;;;3.87;;
13404;SDS011;6773;51.192;7.024;2023-11-19T00:11:25;4.93;;;4.20;;
13404;SDS011;6773;51.192;7.024;2023-11-19T00:13:51;4.30;;;3.83;;
13404;SDS011;6773;51.192;7.024;2023-11-19T00:16:17;5.90;;;4.00;;
13404;SDS011;6773;51.192;7.024;2023-11-19T00:18:43;4.40;;;4.00;;
13404;SDS011;6773;51.192;7.024;2023-11-19T00:21:09;4.70;;;4.00;;
13404;SDS011;6773;51.192;7.024;2023-11-19T00:23:35;5.73;;;3.60;;
13404;SDS011;6773;51.192;7.024;2023-11-19T00:26:01;5.17;;;4.10;;
13404;SDS011;6773;51.192;7.024;2023-11-19T00:28:27;5.40;;;3.90;;
13404;SDS011;6773;51.192;7.024;2023-11-19T00:30:53;4.53;;;4.13;;
13404;SDS011;6773;51.192;7.024;2023-11-19T00:33:20;4.87;;;4.00;;
13404;SDS011;6773;51.192;7.024;2023-11-19T00:35:46;4.63;;;3.63;;
13404;SDS011;6773;51.192;7.024;2023-11-19T00:38:11;4.57;;;4.07;;
13404;SDS011;6773;51.192;7.024;2023-11-19T00:40:37;4.53;;;3.53;;
13404;SDS011;6773;51.192;7.024;2023-11-19T00:43:03;4.63;;;3.87;;
13404;SDS011;6773;51.192;7.024;2023-11-19T00:45:29;4.07;;;3.67;;
13404;SDS011;6773;51.192;7.024;2023-11-19T00:47:55;8.83;;;4.00;;
13404;SDS011;6773;51.192;7.024;2023-11-19T00:50:21;5.53;;;4.20;;
13404;SDS011;6773;51.192;7.024;2023-11-19T00:52:47;5.10;;;3.83;;
13404;SDS011;6773;51.192;7.024;2023-11-19T00:55:13;5.00;;;3.77;;
13404;SDS011;6773;51.192;7.024;2023-11-19T00:57:39;5.77;;;3.87;;
13404;SDS011;6773;51.192;7.024;2023-11-19T01:00:06;5.57;;;4.10;;
13404;SDS011;6773;51.192;7.024;2023-11-19T01:02:53;5.37;;;4.10;;
13404;SDS011;6773;51.192;7.024;2023-11-19T01:05:19;4.27;;;3.83;;
13404;SDS011;6773;51.192;7.024;2023-11-19T01:07:48;4.13;;;3.80;;
13404;SDS011;6773;51.192;7.024;2023-11-19T01:10:14;5.57;;;3.90;;
13404;SDS011;6773;51.192;7.024;2023-11-19T01:12:43;5.03;;;4.03;;
13404;SDS011;6773;51.192;7.024;2023-11-19T01:15:09;4.53;;;4.13;;
13404;SDS011;6773;51.192;7.024;2023-11-19T01:17:39;4.20;;;3.67;;
13404;SDS011;6773;51.192;7.024;2023-11-19T01:20:05;3.80;;;3.50;;
13404;SDS011;6773;51.192;7.024;2023-11-19T01:22:31;4.77;;;3.57;;
13404;SDS011;6773;51.192;7.024;2023-11-19T01:24:57;4.57;;;4.13;;
13404;SDS011;6773;51.192;7.024;2023-11-19T01:27:24;5.50;;;4.03;;
13404;SDS011;6773;51.192;7.024;2023-11-19T01:29:50;4.10;;;3.70;;
13404;SDS011;6773;51.192;7.024;2023-11-19T01:32:16;4.47;;;3.70;;
13404;SDS011;6773;51.192;7.024;2023-11-19T01:34:42;4.60;;;3.97;;
13404;SDS011;6773;51.192;7.024;2023-11-19T01:37:08;5.47;;;4.13;;
13404;SDS011;6773;51.192;7.024;2023-11-19T01:39:39;5.60;;;3.53;;
13404;SDS011;6773;51.192;7.024;2023-11-19T01:42:05;6.03;;;4.17;;
13404;SDS011;6773;51.192;7.024;2023-11-19T01:44:31;6.23;;;3.40;;
13404;SDS011;6773;51.192;7.024;2023-11-19T01:46:57;4.03;;;3.63;;
13404;SDS011;6773;51.192;7.024;2023-11-19T01:49:22;5.47;;;3.83;;
13404;SDS011;6773;51.192;7.024;2023-11-19T01:51:48;4.43;;;3.57;;
13404;SDS011;6773;51.192;7.024;2023-11-19T01:54:15;4.50;;;3.53;;
13404;SDS011;6773;51.192;7.024;2023-11-19T01:56:41;4.20;;;3.37;;
13404;SDS011;6773;51.192;7.024;2023-11-19T01:59:08;4.43;;;3.30;;
13404;SDS011;6773;51.192;7.024;2023-11-19T02:01:36;3.20;;;2.90;;
13404;SDS011;6773;51.192;7.024;2023-11-19T02:04:05;6.37;;;3.37;;
13404;SDS011;6773;51.192;7.024;2023-11-19T02:06:32;3.27;;;2.97;;
13404;SDS011;6773;51.192;7.024;2023-11-19T02:08:59;3.30;;;2.80;;
13404;SDS011;6773;51.192;7.024;2023-11-19T02:11:26;3.50;;;2.80;;
13404;SDS011;6773;51.192;7.024;2023-11-19T02:13:54;3.57;;;2.70;;
13404;SDS011;6773;51.192;7.024;2023-11-19T02:16:21;4.37;;;2.90;;
13404;SDS011;6773;51.192;7.024;2023-11-19T02:18:47;5.23;;;3.47;;
13404;SDS011;6773;51.192;7.024;2023-11-19T02:21:13;4.43;;;2.70;;
13404;SDS011;6773;51.192;7.024;2023-11-19T02:23:40;4.57;;;2.80;;
13404;SDS011;6773;51.192;7.024;2023-11-19T02:28:42;3.50;;;2.90;;
13404;SDS011;6773;51.192;7.024;2023-11-19T02:31:08;5.20;;;2.83;;
13404;SDS011;6773;51.192;7.024;2023-11-19T02:33:35;3.73;;;2.43;;
13404;SDS011;6773;51.192;7.024;2023-11-19T02:36:01;7.33;;;2.80;;
13404;SDS011;6773;51.192;7.024;2023-11-19T02:38:28;7.03;;;3.10;;
13404;SDS011;6773;51.192;7.024;2023-11-19T02:40:55;6.47;;;3.03;;
13404;SDS011;6773;51.192;7.024;2023-11-19T02:43:21;11.07;;;3.37;;
13404;SDS011;6773;51.192;7.024;2023-11-19T02:45:47;8.97;;;3.60;;
13404;SDS011;6773;51.192;7.024;2023-11-19T02:48:14;7.50;;;3.80;;
13404;SDS011;6773;51.192;7.024;2023-11-19T02:50:41;10.77;;;3.97;;
13404;SDS011;6773;51.192;7.024;2023-11-19T02:53:07;7.70;;;4.03;;
13404;SDS011;6773;51.192;7.024;2023-11-19T02:55:33;11.40;;;3.93;;
13404;SDS011;6773;51.192;7.024;2023-11-19T02:58:03;8.90;;;3.60;;
13404;SDS011;6773;51.192;7.024;2023-11-19T03:00:45;6.17;;;3.67;;
13404;SDS011;6773;51.192;7.024;2023-11-19T03:03:17;10.40;;;3.63;;
13404;SDS011;6773;51.192;7.024;2023-11-19T03:05:48;8.53;;;3.97;;
13404;SDS011;6773;51.192;7.024;2023-11-19T03:08:17;10.07;;;3.90;;
13404;SDS011;6773;51.192;7.024;2023-11-19T03:10:43;8.90;;;4.10;;
13404;SDS011;6773;51.192;7.024;2023-11-19T03:13:12;12.83;;;3.90;;
13404;SDS011;6773;51.192;7.024;2023-11-19T03:15:39;14.67;;;5.03;;
13404;SDS011;6773;51.192;7.024;2023-11-19T03:18:05;10.20;;;4.30;;
13404;SDS011;6773;51.192;7.024;2023-11-19T03:20:31;7.90;;;4.33;;
13404;SDS011;6773;51.192;7.024;2023-11-19T03:22:57;11.03;;;4.37;;
13404;SDS011;6773;51.192;7.024;2023-11-19T03:25:27;8.50;;;4.30;;
13404;SDS011;6773;51.192;7.024;2023-11-19T03:27:58;10.13;;;4.27;;
13404;SDS011;6773;51.192;7.024;2023-11-19T03:30:24;11.60;;;3.87;;
13404;SDS011;6773;51.192;7.024;2023-11-19T03:32:50;12.60;;;4.10;;
13404;SDS011;6773;51.192;7.024;2023-11-19T03:35:16;15.60;;;4.07;;
13404;SDS011;6773;51.192;7.024;2023-11-19T03:37:42;13.93;;;4.30;;
13404;SDS011;6773;51.192;7.024;2023-11-19T03:40:08;12.20;;;4.10;;
13404;SDS011;6773;51.192;7.024;2023-11-19T03:42:35;10.40;;;3.93;;
13404;SDS011;6773;51.192;7.024;2023-11-19T03:45:01;11.90;;;3.43;;
13404;SDS011;6773;51.192;7.024;2023-11-19T03:47:29;14.10;;;4.33;;
13404;SDS011;6773;51.192;7.024;2023-11-19T03:49:55;11.90;;;3.80;;
13404;SDS011;6773;51.192;7.024;2023-11-19T03:52:21;7.87;;;3.00;;
13404;SDS011;6773;51.192;7.024;2023-11-19T03:54:47;12.87;;;3.80;;
13404;SDS011;6773;51.192;7.024;2023-11-19T03:57:12;6.93;;;2.87;;
13404;SDS011;6773;51.192;7.024;2023-11-19T03:59:39;13.27;;;4.00;;
13404;SDS011;6773;51.192;7.024;2023-11-19T04:02:05;10.07;;;3.30;;
13404;SDS011;6773;51.192;7.024;2023-11-19T04:04:31;15.07;;;4.23;;
13404;SDS011;6773;51.192;7.024;2023-11-19T04:06:57;9.97;;;3.47;;
13404;SDS011;6773;51.192;7.024;2023-11-19T04:09:23;10.90;;;3.60;;
13404;SDS011;6773;51.192;7.024;2023-11-19T04:11:49;10.83;;;2.90;;
13404;SDS011;6773;51.192;7.024;2023-11-19T04:14:15;13.07;;;3.63;;
13404;SDS011;6773;51.192;7.024;2023-11-19T04:16:43;12.93;;;3.97;;
13404;SDS011;6773;51.192;7.024;2023-11-19T04:19:09;9.33;;;2.87;;
13404;SDS011;6773;51.192;7.024;2023-11-19T04:21:35;13.23;;;3.97;;
13404;SDS011;6773;51.192;7.024;2023-11-19T04:24:01;14.37;;;3.13;;
13404;SDS011;6773;51.192;7.024;2023-11-19T04:26:27;12.10;;;2.80;;
13404;SDS011;6773;51.192;7.024;2023-11-19T04:28:53;12.40;;;3.10;;
13404;SDS011;6773;51.192;7.024;2023-11-19T04:31:19;11.30;;;3.23;;
13404;SDS011;6773;51.192;7.024;2023-11-19T04:33:45;11.03;;;3.20;;
13404;SDS011;6773;51.192;7.024;2023-11-19T04:36:12;14.00;;;4.10;;
13404;SDS011;6773;51.192;7.024;2023-11-19T04:38:39;12.30;;;3.63;;
13404;SDS011;6773;51.192;7.024;2023-11-19T04:41:05;16.60;;;3.83;;
13404;SDS011;6773;51.192;7.024;2023-11-19T04:43:34;12.33;;;3.37;;
13404;SDS011;6773;51.192;7.024;2023-11-19T04:46:00;9.03;;;3.20;;
13404;SDS011;6773;51.192;7.024;2023-11-19T04:48:29;11.63;;;3.80;;
13404;SDS011;6773;51.192;7.024;2023-11-19T04:50:54;11.00;;;3.37;;
13404;SDS011;6773;51.192;7.024;2023-11-19T04:53:21;18.50;;;4.10;;
13404;SDS011;6773;51.192;7.024;2023-11-19T04:55:47;17.80;;;3.40;;
13404;SDS011;6773;51.192;7.024;2023-11-19T04:58:13;14.73;;;3.33;;
13404;SDS011;6773;51.192;7.024;2023-11-19T05:00:39;13.23;;;3.50;;
13404;SDS011;6773;51.192;7.024;2023-11-19T05:03:05;10.47;;;3.60;;
13404;SDS011;6773;51.192;7.024;2023-11-19T05:05:31;7.53;;;2.83;;
13404;SDS011;6773;51.192;7.024;2023-11-19T05:07:57;12.60;;;3.37;;
13404;SDS011;6773;51.192;7.024;2023-11-19T05:10:24;11.60;;;2.90;;
13404;SDS011;6773;51.192;7.024;2023-11-19T05:12:50;14.13;;;3.67;;
13404;SDS011;6773;51.192;7.024;2023-11-19T05:15:16;17.60;;;3.73;;
13404;SDS011;6773;51.192;7.024;2023-11-19T05:17:42;14.27;;;3.57;;
13404;SDS011;6773;51.192;7.024;2023-11-19T05:20:08;13.67;;;3.23;;
13404;SDS011;6773;51.192;7.024;2023-11-19T05:22:39;16.13;;;3.67;;
13404;SDS011;6773;51.192;7.024;2023-11-19T05:25:05;13.30;;;3.80;;
13404;SDS011;6773;51.192;7.024;2023-11-19T05:27:32;15.73;;;3.50;;
13404;SDS011;6773;51.192;7.024;2023-11-19T05:29:58;11.50;;;3.27;;
13404;SDS011;6773;51.192;7.024;2023-11-19T05:32:24;14.90;;;3.50;;
13404;SDS011;6773;51.192;7.024;2023-11-19T05:34:50;20.40;;;4.27;;
13404;SDS011;6773;51.192;7.024;2023-11-19T05:37:16;12.77;;;3.50;;
13404;SDS011;6773;51.192;7.024;2023-11-19T05:39:44;12.27;;;3.17;;
13404;SDS011;6773;51.192;7.024;2023-11-19T05:42:10;14.80;;;3.90;;
13404;SDS011;6773;51.192;7.024;2023-11-19T05:44:36;15.50;;;3.07;;
13404;SDS011;6773;51.192;7.024;2023-11-19T05:47:03;11.30;;;2.67;;
13404;SDS011;6773;51.192;7.024;2023-11-19T05:49:29;12.00;;;3.10;;
13404;SDS011;6773;51.192;7.024;2023-11-19T05:51:55;10.03;;;2.97;;
13404;SDS011;6773;51.192;7.024;2023-11-19T05:54:21;14.00;;;3.30;;
13404;SDS011;6773;51.192;7.024;2023-11-19T05:56:50;11.47;;;3.43;;
13404;SDS011;6773;51.192;7.024;2023-11-19T05:59:19;14.03;;;3.30;;
13404;SDS011;6773;51.192;7.024;2023-11-19T06:01:45;13.33;;;3.30;;
13404;SDS011;6773;51.192;7.024;2023-11-19T06:04:11;8.67;;;3.13;;
13404;SDS011;6773;51.192;7.024;2023-11-19T06:06:37;10.77;;;3.83;;
13404;SDS011;6773;51.192;7.024;2023-11-19T06:09:03;11.17;;;2.87;;
13404;SDS011;6773;51.192;7.024;2023-11-19T06:11:30;13.73;;;3.40;;
13404;SDS011;6773;51.192;7.024;2023-11-19T06:13:56;13.30;;;3.20;;
13404;SDS011;6773;51.192;7.024;2023-11-19T06:16:22;10.53;;;3.40;;
13404;SDS011;6773;51.192;7.024;2023-11-19T06:18:48;15.13;;;3.17;;
13404;SDS011;6773;51.192;7.024;2023-11-19T06:21:14;18.77;;;4.10;;
13404;SDS011;6773;51.192;7.024;2023-11-19T06:23:40;12.77;;;3.23;;
13404;SDS011;6773;51.192;7.024;2023-11-19T06:26:06;9.00;;;2.83;;
13404;SDS011;6773;51.192;7.024;2023-11-19T06:28:32;16.73;;;3.97;;
13404;SDS011;6773;51.192;7.024;2023-11-19T06:30:58;18.23;;;3.80;;
13404;SDS011;6773;51.192;7.024;2023-11-19T06:33:24;9.37;;;2.90;;
13404;SDS011;6773;51.192;7.024;2023-11-19T06:35:50;16.70;;;3.33;;
13404;SDS011;6773;51.192;7.024;2023-11-19T06:38:15;18.47;;;3.67;;
13404;SDS011;6773;51.192;7.024;2023-11-19T06:40:41;9.70;;;2.83;;
13404;SDS011;6773;51.192;7.024;2023-11-19T06:43:07;14.93;;;3.17;;
13404;SDS011;6773;51.192;7.024;2023-11-19T06:45:34;14.33;;;3.13;;
13404;SDS011;6773;51.192;7.024;2023-11-19T06:48:01;17.57;;;3.80;;
13404;SDS011;6773;51.192;7.024;2023-11-19T06:50:31;12.97;;;3.67;;
13404;SDS011;6773;51.192;7.024;2023-11-19T06:52:57;12.60;;;3.37;;
13404;SDS011;6773;51.192;7.024;2023-11-19T06:55:23;15.47;;;3.17;;
13404;SDS011;6773;51.192;7.024;2023-11-19T06:57:50;15.43;;;4.13;;
13404;SDS011;6773;51.192;7.024;2023-11-19T07:00:16;18.87;;;4.07;;
13404;SDS011;6773;51.192;7.024;2023-11-19T07:02:43;18.57;;;4.50;;
13404;SDS011;6773;51.192;7.024;2023-11-19T07:05:09;11.60;;;2.93;;
13404;SDS011;6773;51.192;7.024;2023-11-19T07:07:37;18.23;;;4.07;;
13404;SDS011;6773;51.192;7.024;2023-11-19T07:10:03;11.83;;;3.77;;
13404;SDS011;6773;51.192;7.024;2023-11-19T07:12:29;17.50;;;4.33;;
13404;SDS011;6773;51.192;7.024;2023-11-19T07:14:56;16.17;;;3.57;;
13404;SDS011;6773;51.192;7.024;2023-11-19T07:17:22;11.63;;;3.60;;
13404;SDS011;6773;51.192;7.024;2023-11-19T07:19:49;15.57;;;3.70;;
13404;SDS011;6773;51.192;7.024;2023-11-19T07:22:16;17.63;;;3.73;;
13404;SDS011;6773;51.192;7.024;2023-11-19T07:24:43;21.03;;;3.47;;
13404;SDS011;6773;51.192;7.024;2023-11-19T07:27:09;16.97;;;3.97;;
13404;SDS011;6773;51.192;7.024;2023-11-19T07:29:35;18.07;;;4.23;;
13404;SDS011;6773;51.192;7.024;2023-11-19T07:32:01;12.30;;;3.13;;
13404;SDS011;6773;51.192;7.024;2023-11-19T07:34:27;23.93;;;3.57;;
13404;SDS011;6773;51.192;7.024;2023-11-19T07:36:54;13.60;;;3.87;;
13404;SDS011;6773;51.192;7.024;2023-11-19T07:39:24;16.73;;;3.97;;
13404;SDS011;6773;51.192;7.024;2023-11-19T07:41:50;17.07;;;3.90;;
13404;SDS011;6773;51.192;7.024;2023-11-19T07:44:16;24.83;;;3.90;;
13404;SDS011;6773;51.192;7.024;2023-11-19T07:46:42;20.90;;;3.70;;
13404;SDS011;6773;51.192;7.024;2023-11-19T07:49:09;15.20;;;3.87;;
13404;SDS011;6773;51.192;7.024;2023-11-19T07:51:35;18.17;;;3.70;;
13404;SDS011;6773;51.192;7.024;2023-11-19T07:54:01;18.90;;;3.87;;
13404;SDS011;6773;51.192;7.024;2023-11-19T07:56:27;22.80;;;4.87;;
13404;SDS011;6773;51.192;7.024;2023-11-19T07:58:53;14.63;;;3.17;;
13404;SDS011;6773;51.192;7.024;2023-11-19T08:01:18;19.90;;;4.17;;
13404;SDS011;6773;51.192;7.024;2023-11-19T08:03:44;14.10;;;3.70;;
13404;SDS011;6773;51.192;7.024;2023-11-19T08:06:10;14.30;;;3.27;;
13404;SDS011;6773;51.192;7.024;2023-11-19T08:08:37;9.63;;;3.00;;
13404;SDS011;6773;51.192;7.024;2023-11-19T08:11:04;13.87;;;4.23;;
13404;SDS011;6773;51.192;7.024;2023-11-19T08:13:30;21.13;;;4.60;;
13404;SDS011;6773;51.192;7.024;2023-11-19T08:15:56;14.53;;;3.93;;
13404;SDS011;6773;51.192;7.024;2023-11-19T08:18:23;20.93;;;4.30;;
13404;SDS011;6773;51.192;7.024;2023-11-19T08:20:49;16.60;;;3.37;;
13404;SDS011;6773;51.192;7.024;2023-11-19T08:23:18;15.23;;;3.50;;
13404;SDS011;6773;51.192;7.024;2023-11-19T08:25:44;12.87;;;3.67;;
13404;SDS011;6773;51.192;7.024;2023-11-19T08:28:10;11.37;;;3.80;;
13404;SDS011;6773;51.192;7.024;2023-11-19T08:30:36;17.53;;;4.10;;
13404;SDS011;6773;51.192;7.024;2023-11-19T08:33:02;11.13;;;3.00;;
13404;SDS011;6773;51.192;7.024;2023-11-19T08:35:28;19.60;;;3.03;;
13404;SDS011;6773;51.192;7.024;2023-11-19T08:37:55;14.87;;;3.30;;
13404;SDS011;6773;51.192;7.024;2023-11-19T08:40:22;9.70;;;4.00;;
13404;SDS011;6773;51.192;7.024;2023-11-19T08:42:47;14.87;;;4.17;;
13404;SDS011;6773;51.192;7.024;2023-11-19T08:45:13;16.13;;;3.73;;
13404;SDS011;6773;51.192;7.024;2023-11-19T08:47:39;12.80;;;3.33;;
13404;SDS011;6773;51.192;7.024;2023-11-19T08:50:06;17.30;;;3.23;;
13404;SDS011;6773;51.192;7.024;2023-11-19T08:52:32;15.17;;;3.17;;
13404;SDS011;6773;51.192;7.024;2023-11-19T08:54:58;11.60;;;3.60;;
13404;SDS011;6773;51.192;7.024;2023-11-19T08:57:24;13.00;;;3.13;;
13404;SDS011;6773;51.192;7.024;2023-11-19T08:59:50;15.77;;;3.77;;
13404;SDS011;6773;51.192;7.024;2023-11-19T09:02:16;17.83;;;3.70;;
13404;SDS011;6773;51.192;7.024;2023-11-19T09:04:43;21.47;;;4.60;;
13404;SDS011;6773;51.192;7.024;2023-11-19T09:07:09;14.33;;;4.07;;
13404;SDS011;6773;51.192;7.024;2023-11-19T09:09:35;9.77;;;3.37;;
13404;SDS011;6773;51.192;7.024;2023-11-19T09:12:01;15.00;;;3.20;;
13404;SDS011;6773;51.192;7.024;2023-11-19T09:14:28;19.77;;;4.40;;
13404;SDS011;6773;51.192;7.024;2023-11-19T09:16:55;15.83;;;3.53;;
13404;SDS011;6773;51.192;7.024;2023-11-19T09:19:21;16.87;;;3.27;;
13404;SDS011;6773;51.192;7.024;2023-11-19T09:21:47;13.80;;;3.87;;
13404;SDS011;6773;51.192;7.024;2023-11-19T09:24:14;13.33;;;4.43;;
13404;SDS011;6773;51.192;7.024;2023-11-19T09:26:40;17.30;;;4.23;;
13404;SDS011;6773;51.192;7.024;2023-11-19T09:29:09;17.70;;;4.40;;
13404;SDS011;6773;51.192;7.024;2023-11-19T09:31:37;14.20;;;4.10;;
13404;SDS011;6773;51.192;7.024;2023-11-19T09:34:03;20.50;;;4.00;;
13404;SDS011;6773;51.192;7.024;2023-11-19T09:36:30;14.00;;;3.47;;
13404;SDS011;6773;51.192;7.024;2023-11-19T09:38:56;14.47;;;3.40;;
13404;SDS011;6773;51.192;7.024;2023-11-19T09:41:22;11.60;;;3.50;;
13404;SDS011;6773;51.192;7.024;2023-11-19T09:43:48;18.17;;;4.00;;
13404;SDS011;6773;51.192;7.024;2023-11-19T09:46:15;14.77;;;4.33;;
13404;SDS011;6773;51.192;7.024;2023-11-19T09:48:41;15.67;;;3.87;;
13404;SDS011;6773;51.192;7.024;2023-11-19T09:51:11;20.23;;;3.70;;
13404;SDS011;6773;51.192;7.024;2023-11-19T09:53:37;14.97;;;3.40;;
13404;SDS011;6773;51.192;7.024;2023-11-19T09:56:04;12.97;;;4.03;;
13404;SDS011;6773;51.192;7.024;2023-11-19T09:58:31;16.23;;;3.33;;
13404;SDS011;6773;51.192;7.024;2023-11-19T10:00:57;12.73;;;3.20;;
13404;SDS011;6773;51.192;7.024;2023-11-19T10:03:24;21.27;;;4.50;;
13404;SDS011;6773;51.192;7.024;2023-11-19T10:05:51;16.20;;;3.30;;
13404;SDS011;6773;51.192;7.024;2023-11-19T10:08:17;19.40;;;4.07;;
13404;SDS011;6773;51.192;7.024;2023-11-19T10:10:43;19.13;;;3.90;;
13404;SDS011;6773;51.192;7.024;2023-11-19T10:13:09;16.37;;;4.13;;
13404;SDS011;6773;51.192;7.024;2023-11-19T10:15:35;12.87;;;3.97;;
13404;SDS011;6773;51.192;7.024;2023-11-19T10:18:02;12.37;;;3.77;;
13404;SDS011;6773;51.192;7.024;2023-11-19T10:20:34;13.33;;;3.10;;
13404;SDS011;6773;51.192;7.024;2023-11-19T10:23:06;15.17;;;3.83;;
13404;SDS011;6773;51.192;7.024;2023-11-19T10:25:32;13.40;;;3.30;;
13404;SDS011;6773;51.192;7.024;2023-11-19T10:27:58;12.53;;;3.50;;
13404;SDS011;6773;51.192;7.024;2023-11-19T10:30:26;17.47;;;3.50;;
13404;SDS011;6773;51.192;7.024;2023-11-19T10:33:02;17.27;;;4.20;;
13404;SDS011;6773;51.192;7.024;2023-11-19T10:35:30;14.70;;;4.20;;
13404;SDS011;6773;51.192;7.024;2023-11-19T10:38:00;15.80;;;4.10;;
13404;SDS011;6773;51.192;7.024;2023-11-19T10:40:39;16.20;;;3.67;;
13404;SDS011;6773;51.192;7.024;2023-11-19T10:43:05;18.40;;;3.73;;
13404;SDS011;6773;51.192;7.024;2023-11-19T10:45:32;18.27;;;4.17;;
13404;SDS011;6773;51.192;7.024;2023-11-19T10:47:58;18.43;;;4.07;;
13404;SDS011;6773;51.192;7.024;2023-11-19T10:50:25;17.67;;;4.03;;
13404;SDS011;6773;51.192;7.024;2023-11-19T10:52:52;14.40;;;3.53;;
13404;SDS011;6773;51.192;7.024;2023-11-19T10:55:25;13.67;;;3.60;;
13404;SDS011;6773;51.192;7.024;2023-11-19T10:57:52;14.70;;;3.37;;
13404;SDS011;6773;51.192;7.024;2023-11-19T11:00:21;15.93;;;3.23;;
13404;SDS011;6773;51.192;7.024;2023-11-19T11:02:49;14.17;;;3.50;;
13404;SDS011;6773;51.192;7.024;2023-11-19T11:05:16;11.63;;;3.13;;
13404;SDS011;6773;51.192;7.024;2023-11-19T11:07:44;13.40;;;3.10;;
13404;SDS011;6773;51.192;7.024;2023-11-19T11:10:10;11.37;;;3.13;;
13404;SDS011;6773;51.192;7.024;2023-11-19T11:12:38;15.63;;;3.20;;
13404;SDS011;6773;51.192;7.024;2023-11-19T11:15:06;11.17;;;2.87;;
13404;SDS011;6773;51.192;7.024;2023-11-19T11:17:34;13.67;;;3.43;;
13404;SDS011;6773;51.192;7.024;2023-11-19T11:20:02;12.00;;;3.60;;
13404;SDS011;6773;51.192;7.024;2023-11-19T11:22:29;17.73;;;3.63;;
13404;SDS011;6773;51.192;7.024;2023-11-19T11:25:08;7.30;;;2.33;;
13404;SDS011;6773;51.192;7.024;2023-11-19T11:27:56;14.07;;;3.73;;
13404;SDS011;6773;51.192;7.024;2023-11-19T11:33:02;9.57;;;2.53;;
13404;SDS011;6773;51.192;7.024;2023-11-19T11:35:37;12.60;;;3.30;;
13404;SDS011;6773;51.192;7.024;2023-11-19T11:38:22;8.17;;;2.90;;
13404;SDS011;6773;51.192;7.024;2023-11-19T11:49:00;12.63;;;3.23;;
13404;SDS011;6773;51.192;7.024;2023-11-19T11:54:11;11.97;;;2.77;;
13404;SDS011;6773;51.192;7.024;2023-11-19T11:56:37;12.77;;;3.23;;
13404;SDS011;6773;51.192;7.024;2023-11-19T11:59:07;9.03;;;3.03;;
13404;SDS011;6773;51.192;7.024;2023-11-19T12:01:33;14.47;;;3.30;;
13404;SDS011;6773;51.192;7.024;2023-11-19T12:03:59;12.50;;;2.53;;
13404;SDS011;6773;51.192;7.024;2023-11-19T12:06:26;13.63;;;3.93;;
13404;SDS011;6773;51.192;7.024;2023-11-19T12:08:52;15.07;;;3.13;;
13404;SDS011;6773;51.192;7.024;2023-11-19T12:11:24;8.83;;;2.80;;
13404;SDS011;6773;51.192;7.024;2023-11-19T12:13:53;13.53;;;3.00;;
13404;SDS011;6773;51.192;7.024;2023-11-19T12:16:21;12.10;;;2.87;;
13404;SDS011;6773;51.192;7.024;2023-11-19T12:18:47;10.90;;;3.10;;
13404;SDS011;6773;51.192;7.024;2023-11-19T12:21:27;13.43;;;3.47;;
13404;SDS011;6773;51.192;7.024;2023-11-19T12:23:54;11.70;;;2.90;;
13404;SDS011;6773;51.192;7.024;2023-11-19T12:26:21;12.13;;;2.90;;
13404;SDS011;6773;51.192;7.024;2023-11-19T12:28:57;15.27;;;2.87;;
13404;SDS011;6773;51.192;7.024;2023-11-19T12:31:26;14.83;;;3.13;;
13404;SDS011;6773;51.192;7.024;2023-11-19T12:33:52;6.90;;;3.20;;
13404;SDS011;6773;51.192;7.024;2023-11-19T12:36:18;15.43;;;2.93;;
13404;SDS011;6773;51.192;7.024;2023-11-19T12:38:44;9.47;;;3.40;;
13404;SDS011;6773;51.192;7.024;2023-11-19T12:41:11;12.27;;;3.47;;
13404;SDS011;6773;51.192;7.024;2023-11-19T12:43:38;12.63;;;2.70;;
13404;SDS011;6773;51.192;7.024;2023-11-19T12:48:44;7.13;;;2.33;;
13404;SDS011;6773;51.192;7.024;2023-11-19T12:51:11;7.77;;;2.60;;
13404;SDS011;6773;51.192;7.024;2023-11-19T12:53:47;16.03;;;4.40;;
13404;SDS011;6773;51.192;7.024;2023-11-19T12:56:14;10.50;;;2.83;;
13404;SDS011;6773;51.192;7.024;2023-11-19T12:58:40;9.07;;;2.70;;
13404;SDS011;6773;51.192;7.024;2023-11-19T13:01:08;11.20;;;2.73;;
13404;SDS011;6773;51.192;7.024;2023-11-19T13:03:37;13.43;;;3.30;;
13404;SDS011;6773;51.192;7.024;2023-11-19T13:06:09;14.27;;;2.67;;
13404;SDS011;6773;51.192;7.024;2023-11-19T13:08:46;16.23;;;3.83;;
13404;SDS011;6773;51.192;7.024;2023-11-19T13:11:31;8.87;;;2.83;;
13404;SDS011;6773;51.192;7.024;2023-11-19T13:14:02;9.90;;;3.00;;
13404;SDS011;6773;51.192;7.024;2023-11-19T13:16:29;13.97;;;2.90;;
13404;SDS011;6773;51.192;7.024;2023-11-19T13:18:56;15.10;;;4.60;;
13404;SDS011;6773;51.192;7.024;2023-11-19T13:21:22;12.73;;;2.93;;
13404;SDS011;6773;51.192;7.024;2023-11-19T13:23:48;12.20;;;3.33;;
13404;SDS011;6773;51.192;7.024;2023-11-19T13:26:15;10.23;;;2.80;;
13404;SDS011;6773;51.192;7.024;2023-11-19T13:28:41;10.10;;;3.13;;
13404;SDS011;6773;51.192;7.024;2023-11-19T13:31:07;6.80;;;3.40;;
13404;SDS011;6773;51.192;7.024;2023-11-19T13:33:35;6.53;;;2.77;;
13404;SDS011;6773;51.192;7.024;2023-11-19T13:36:01;11.13;;;3.10;;
13404;SDS011;6773;51.192;7.024;2023-11-19T13:38:31;8.27;;;3.30;;
13404;SDS011;6773;51.192;7.024;2023-11-19T13:40:58;9.20;;;2.70;;
13404;SDS011;6773;51.192;7.024;2023-11-19T13:43:24;11.20;;;2.97;;
13404;SDS011;6773;51.192;7.024;2023-11-19T13:45:50;9.73;;;2.73;;
13404;SDS011;6773;51.192;7.024;2023-11-19T13:48:18;10.43;;;2.73;;
13404;SDS011;6773;51.192;7.024;2023-11-19T13:50:43;13.63;;;3.13;;
13404;SDS011;6773;51.192;7.024;2023-11-19T13:53:10;10.73;;;3.17;;
13404;SDS011;6773;51.192;7.024;2023-11-19T13:55:35;11.07;;;2.60;;
13404;SDS011;6773;51.192;7.024;2023-11-19T13:58:01;8.00;;;2.40;;
13404;SDS011;6773;51.192;7.024;2023-11-19T14:00:27;15.27;;;3.27;;
13404;SDS011;6773;51.192;7.024;2023-11-19T14:02:53;14.70;;;2.97;;
13404;SDS011;6773;51.192;7.024;2023-11-19T14:05:19;9.43;;;2.57;;
13404;SDS011;6773;51.192;7.024;2023-11-19T14:07:45;10.47;;;3.43;;
13404;SDS011;6773;51.192;7.024;2023-11-19T14:10:13;18.77;;;4.27;;
13404;SDS011;6773;51.192;7.024;2023-11-19T14:12:40;20.70;;;4.10;;
13404;SDS011;6773;51.192;7.024;2023-11-19T14:15:06;10.27;;;3.00;;
13404;SDS011;6773;51.192;7.024;2023-11-19T14:17:34;16.13;;;3.33;;
13404;SDS011;6773;51.192;7.024;2023-11-19T14:20:00;17.13;;;3.67;;
13404;SDS011;6773;51.192;7.024;2023-11-19T14:22:27;13.07;;;3.00;;
13404;SDS011;6773;51.192;7.024;2023-11-19T14:24:55;14.63;;;3.23;;
13404;SDS011;6773;51.192;7.024;2023-11-19T14:27:21;14.33;;;2.93;;
13404;SDS011;6773;51.192;7.024;2023-11-19T14:29:47;14.17;;;4.10;;
13404;SDS011;6773;51.192;7.024;2023-11-19T14:32:13;9.80;;;3.10;;
13404;SDS011;6773;51.192;7.024;2023-11-19T14:34:39;18.33;;;3.77;;
13404;SDS011;6773;51.192;7.024;2023-11-19T14:37:05;15.03;;;4.00;;
13404;SDS011;6773;51.192;7.024;2023-11-19T14:39:31;10.53;;;3.00;;
13404;SDS011;6773;51.192;7.024;2023-11-19T14:41:57;14.20;;;3.73;;
13404;SDS011;6773;51.192;7.024;2023-11-19T14:44:26;17.30;;;3.63;;
13404;SDS011;6773;51.192;7.024;2023-11-19T14:46:52;14.53;;;3.67;;
13404;SDS011;6773;51.192;7.024;2023-11-19T14:49:18;13.13;;;3.80;;
13404;SDS011;6773;51.192;7.024;2023-11-19T14:51:44;17.00;;;3.97;;
13404;SDS011;6773;51.192;7.024;2023-11-19T14:54:10;11.60;;;3.10;;
13404;SDS011;6773;51.192;7.024;2023-11-19T14:56:35;10.50;;;2.80;;
13404;SDS011;6773;51.192;7.024;2023-11-19T14:59:03;16.03;;;3.93;;
13404;SDS011;6773;51.192;7.024;2023-11-19T15:01:29;17.40;;;3.13;;
13404;SDS011;6773;51.192;7.024;2023-11-19T15:03:55;15.47;;;3.77;;
13404;SDS011;6773;51.192;7.024;2023-11-19T15:06:25;8.87;;;3.80;;
13404;SDS011;6773;51.192;7.024;2023-11-19T15:08:55;11.70;;;3.23;;
13404;SDS011;6773;51.192;7.024;2023-11-19T15:11:21;13.97;;;3.90;;